Toano, Virginia
Current Conditions -  °F | °C
As of 3:55 PM on Tuesday 27 Jan 2015 (Local Time) from KFYJ Reporting Station
Clear Clear  
Wind Chill: 35°   Ceiling: Unl
Heat Index: 40°   Visibility: 10mi
Dew Point: 24°   Wind: 7mph
Humidity: 53%   Direction: 300°WNW
Pressure: 29.81"   Gusts: NA
Location:  37.38°N, 76.8°W
Report Text: KFYJ 272055Z AUTO 30006KT 10SM CLR 04/M04 A2981 RMK AO2 T00431045
Loading
Personal Weather Stations






























Interactive Weather Map New forecast layout! Learn more

10-Day Weather Forecast

Advertisements
Track Severe Weather on mobile